Terminal Aerodrome Forecast
Issued by NWS Sioux Falls, SD

Home | Current Version | Previous Version | Graphics & Text | Print | Product List | Glossary Off
Versions: 1 2 3 4 5 6 7 8 9 10 11 12 13 14

000
FTUS43 KFSD 200417 AAC
TAFFSD
TAF AMD
KFSD 200417Z 2004/2024 16018G27KT P6SM FEW035 BKN070
     FM200430 26031G45KT 2SM TSRA BR OVC025CB
     FM200500 31012KT P6SM TSRA OVC040CB
     FM200600 30013KT P6SM BKN040
     FM200800 28014G20KT P6SM BKN060
     FM201100 29008KT P6SM SKC
     FM202000 24007KT P6SM SKC=

USA.gov is the U.S. government's official web portal to all federal, state and local government web resources and services.